createdAt,value
2022-10-11T00:00:19.674Z,10.71
2022-10-11T00:02:46.910Z,10.73
2022-10-11T00:05:14.167Z,10.74
2022-10-11T00:07:41.407Z,10.73
2022-10-11T00:10:09.991Z,10.74
2022-10-11T00:12:37.301Z,10.72
2022-10-11T00:15:07.130Z,10.71
2022-10-11T00:17:35.119Z,10.67
2022-10-11T00:20:02.329Z,10.61
2022-10-11T00:22:29.503Z,10.56
2022-10-11T00:24:58.753Z,10.59
2022-10-11T00:27:26.068Z,10.77
2022-10-11T00:29:53.899Z,10.82
2022-10-11T00:32:21.123Z,10.92
2022-10-11T00:34:48.423Z,10.93
2022-10-11T00:37:15.599Z,11.00
2022-10-11T00:39:42.931Z,10.92
2022-10-11T00:42:17.505Z,10.97
2022-10-11T00:44:48.120Z,10.87
2022-10-11T00:47:18.389Z,10.86
2022-10-11T00:50:01.735Z,10.74
2022-10-11T00:52:42.131Z,10.64
2022-10-11T00:55:17.103Z,10.57
2022-10-11T00:57:48.684Z,10.41
2022-10-11T01:00:16.813Z,10.23
2022-10-11T01:02:44.302Z,10.20
2022-10-11T01:05:32.226Z,10.10
2022-10-11T01:08:00.914Z,10.05
2022-10-11T01:10:29.134Z,10.02
2022-10-11T01:13:25.850Z,10.00
2022-10-11T01:16:10.488Z,9.89
2022-10-11T01:18:48.393Z,9.84
2022-10-11T01:21:46.785Z,9.94
2022-10-11T01:24:20.343Z,9.95
2022-10-11T01:27:06.554Z,9.89
2022-10-11T01:29:57.211Z,9.78
2022-10-11T01:32:38.700Z,9.87
2022-10-11T01:35:24.650Z,9.98
2022-10-11T01:38:08.058Z,10.08
2022-10-11T01:40:51.364Z,10.17
2022-10-11T01:43:20.545Z,10.19
2022-10-11T01:45:52.653Z,10.29
2022-10-11T01:48:19.987Z,10.40
2022-10-11T01:50:50.381Z,10.44
2022-10-11T01:53:35.886Z,10.45
2022-10-11T01:56:30.309Z,10.54
2022-10-11T01:59:22.296Z,10.56
2022-10-11T02:02:37.595Z,10.56
2022-10-11T02:05:40.233Z,10.51
2022-10-11T02:08:20.276Z,10.53
2022-10-11T02:11:19.880Z,10.65
2022-10-11T02:14:06.784Z,10.73
2022-10-11T02:16:44.020Z,10.83
2022-10-11T02:19:17.159Z,10.88
2022-10-11T02:21:47.448Z,10.90
2022-10-11T02:24:27.313Z,10.87
2022-10-11T02:26:57.391Z,10.83
2022-10-11T02:29:30.646Z,10.83
2022-10-11T02:32:00.693Z,10.86
2022-10-11T02:34:44.938Z,10.85
2022-10-11T02:37:40.467Z,10.91
2022-10-11T02:40:32.079Z,10.83
2022-10-11T02:43:18.265Z,10.73
2022-10-11T02:46:00.244Z,10.70
2022-10-11T02:48:29.447Z,10.78
2022-10-11T02:50:58.784Z,10.71
2022-10-11T02:53:27.247Z,10.63
2022-10-11T02:55:56.024Z,10.63
2022-10-11T02:58:24.685Z,10.57
2022-10-11T03:00:52.092Z,10.54
2022-10-11T03:03:19.470Z,10.48
2022-10-11T03:05:46.699Z,10.55
2022-10-11T03:08:16.453Z,10.52
2022-10-11T03:10:44.336Z,10.46
2022-10-11T03:13:14.825Z,10.42
2022-10-11T03:15:47.927Z,10.46
2022-10-11T03:18:15.811Z,10.43
2022-10-11T03:20:43.379Z,10.46
2022-10-11T03:23:11.451Z,10.49
2022-10-11T03:25:39.322Z,10.45
2022-10-11T03:28:06.792Z,10.47
2022-10-11T03:30:34.138Z,10.47
2022-10-11T03:33:01.411Z,10.49
2022-10-11T03:35:28.604Z,10.37
2022-10-11T03:37:55.791Z,10.37
2022-10-11T03:40:22.929Z,10.34
2022-10-11T03:42:50.412Z,10.25
2022-10-11T03:45:17.750Z,10.40
2022-10-11T03:47:44.930Z,10.43
2022-10-11T03:50:12.189Z,10.50
2022-10-11T03:52:39.486Z,10.49
2022-10-11T03:55:07.386Z,10.50
2022-10-11T03:57:34.646Z,10.56
2022-10-11T04:00:01.860Z,10.58
2022-10-11T04:02:29.195Z,10.58
2022-10-11T04:04:56.421Z,10.62
2022-10-11T04:07:23.680Z,10.72
2022-10-11T04:09:52.179Z,10.82
2022-10-11T04:12:19.897Z,10.88
2022-10-11T04:14:47.076Z,11.00
2022-10-11T04:17:14.304Z,11.00
2022-10-11T04:19:41.508Z,10.98
2022-10-11T04:22:09.052Z,10.94
2022-10-11T04:24:36.474Z,10.94
2022-10-11T04:27:03.840Z,10.94
2022-10-11T04:29:32.735Z,10.93
2022-10-11T04:32:00.499Z,10.87
2022-10-11T04:34:27.796Z,10.80
2022-10-11T04:36:55.053Z,10.79
2022-10-11T04:39:22.340Z,10.71
2022-10-11T04:41:49.564Z,10.61
2022-10-11T04:44:16.812Z,10.57
2022-10-11T04:46:44.155Z,10.56
2022-10-11T04:49:11.603Z,10.57
2022-10-11T04:51:38.845Z,10.60
2022-10-11T04:54:06.097Z,10.68
2022-10-11T04:56:33.483Z,10.68
2022-10-11T04:59:00.941Z,10.72
2022-10-11T05:01:28.186Z,10.65
2022-10-11T05:03:55.558Z,10.71
2022-10-11T05:06:22.887Z,10.76
2022-10-11T05:08:50.378Z,10.73
2022-10-11T05:11:18.098Z,10.75
2022-10-11T05:13:46.810Z,10.82
2022-10-11T05:16:15.481Z,10.89
2022-10-11T05:18:43.477Z,10.94
2022-10-11T05:21:20.467Z,11.08
2022-10-11T05:23:50.242Z,11.14
2022-10-11T05:26:19.135Z,11.12
2022-10-11T05:28:47.476Z,11.07
2022-10-11T05:31:15.722Z,11.14
2022-10-11T05:33:44.367Z,11.12
2022-10-11T05:36:12.405Z,11.11
2022-10-11T05:38:40.251Z,11.02
2022-10-11T05:41:11.034Z,10.95
2022-10-11T05:43:38.378Z,11.02
2022-10-11T05:46:06.747Z,11.23
2022-10-11T05:48:34.466Z,11.40
2022-10-11T05:51:05.252Z,11.44
2022-10-11T05:53:33.181Z,11.50
2022-10-11T05:56:00.809Z,11.32
2022-10-11T05:58:28.114Z,11.31
2022-10-11T06:00:57.054Z,11.40
2022-10-11T06:03:24.572Z,11.42
2022-10-11T06:05:56.474Z,11.42
2022-10-11T06:08:24.357Z,11.42
2022-10-11T06:10:51.615Z,11.44
2022-10-11T06:13:18.952Z,11.37
2022-10-11T06:15:46.159Z,11.39
2022-10-11T06:18:13.896Z,11.43
2022-10-11T06:20:41.173Z,11.54
2022-10-11T06:23:08.377Z,11.63
2022-10-11T06:25:35.823Z,11.65
2022-10-11T06:28:03.162Z,11.63
2022-10-11T06:30:30.353Z,11.60
2022-10-11T06:33:02.397Z,11.37
2022-10-11T06:35:31.745Z,11.26
2022-10-11T06:37:59.017Z,11.24
2022-10-11T06:40:26.206Z,11.38
2022-10-11T06:42:53.429Z,11.28
2022-10-11T06:45:20.711Z,11.40
2022-10-11T06:47:47.838Z,11.41
2022-10-11T06:50:15.173Z,11.47
2022-10-11T06:52:42.383Z,11.52
2022-10-11T06:55:10.096Z,11.43
2022-10-11T06:57:37.437Z,11.32
2022-10-11T07:00:11.689Z,11.39
2022-10-11T07:02:39.895Z,11.42
2022-10-11T07:05:08.361Z,11.43
2022-10-11T07:07:35.638Z,11.53
2022-10-11T07:10:02.928Z,11.67
2022-10-11T07:12:30.178Z,11.71
2022-10-11T07:14:57.412Z,11.84
2022-10-11T07:17:25.578Z,11.77
2022-10-11T07:19:52.795Z,11.85
2022-10-11T07:22:19.942Z,11.93
2022-10-11T07:24:49.183Z,11.94
2022-10-11T07:27:16.420Z,11.96
2022-10-11T07:29:43.740Z,11.84
2022-10-11T07:32:11.256Z,11.85
2022-10-11T07:34:38.484Z,11.89
2022-10-11T07:37:05.804Z,11.96
2022-10-11T07:39:33.097Z,12.10
2022-10-11T07:42:00.568Z,12.27
2022-10-11T07:44:27.767Z,12.27
2022-10-11T07:46:54.972Z,12.45
2022-10-11T07:49:22.148Z,12.55
2022-10-11T07:51:49.420Z,12.71
2022-10-11T07:54:16.610Z,12.86
2022-10-11T07:56:43.752Z,13.06
2022-10-11T07:59:11.552Z,13.17
2022-10-11T08:01:38.908Z,13.24
2022-10-11T08:04:06.245Z,13.09
2022-10-11T08:06:33.474Z,13.22
2022-10-11T08:09:01.942Z,13.27
2022-10-11T08:11:33.525Z,13.50
2022-10-11T08:14:01.725Z,13.48
2022-10-11T08:16:29.211Z,13.47
2022-10-11T08:18:57.290Z,13.60
2022-10-11T08:21:26.921Z,13.74
2022-10-11T08:23:54.271Z,13.89
2022-10-11T08:26:22.244Z,13.91
2022-10-11T08:28:49.528Z,13.84
2022-10-11T08:31:16.942Z,13.88
2022-10-11T08:33:44.603Z,13.87
2022-10-11T08:36:12.664Z,13.68
2022-10-11T08:38:40.776Z,13.65
2022-10-11T08:42:32.631Z,13.78
2022-10-11T08:45:12.269Z,13.59
2022-10-11T08:47:45.837Z,13.59
2022-10-11T08:50:22.464Z,13.59
2022-10-11T08:52:59.713Z,13.65
2022-10-11T08:55:43.976Z,13.56
2022-10-11T08:58:19.611Z,13.77
2022-10-11T09:00:50.207Z,13.93
2022-10-11T09:03:41.596Z,14.09
2022-10-11T09:06:26.630Z,14.30
2022-10-11T09:09:21.698Z,14.46
2022-10-11T09:12:12.014Z,14.49
2022-10-11T09:15:15.961Z,14.60
2022-10-11T09:18:14.251Z,14.58
2022-10-11T09:21:09.282Z,14.58
2022-10-11T09:23:43.925Z,14.53
2022-10-11T09:26:35.340Z,14.58
2022-10-11T09:29:07.107Z,14.53
2022-10-11T09:31:34.681Z,14.46
2022-10-11T09:34:14.444Z,14.55
2022-10-11T09:36:58.089Z,14.48
2022-10-11T09:39:39.922Z,14.54
2022-10-11T09:42:10.510Z,14.71
2022-10-11T09:44:46.738Z,14.61
2022-10-11T09:47:27.216Z,14.47
2022-10-11T09:50:14.369Z,14.48
2022-10-11T09:52:54.201Z,14.49
2022-10-11T09:55:51.047Z,14.43
2022-10-11T09:58:32.937Z,14.35
2022-10-11T10:01:21.933Z,14.05
2022-10-11T10:04:08.857Z,14.18
2022-10-11T10:06:36.706Z,14.16
2022-10-11T10:09:25.714Z,14.25
2022-10-11T10:11:55.557Z,14.37
2022-10-11T10:14:30.776Z,14.51
2022-10-11T10:17:06.289Z,14.56
2022-10-11T10:19:45.044Z,14.54
2022-10-11T10:22:27.471Z,14.27
2022-10-11T10:24:56.337Z,14.24
2022-10-11T10:27:30.139Z,14.29
2022-10-11T10:30:13.699Z,14.40
2022-10-11T10:32:55.731Z,14.56
2022-10-11T10:35:53.801Z,14.72
2022-10-11T10:38:30.111Z,14.92
2022-10-11T10:41:04.350Z,15.02
2022-10-11T10:43:37.899Z,14.90
2022-10-11T10:46:20.059Z,14.86
2022-10-11T10:52:21.772Z,14.55
2022-10-11T10:55:07.725Z,14.48
2022-10-11T10:57:47.543Z,14.49
2022-10-11T11:00:22.985Z,14.48
2022-10-11T11:03:21.162Z,14.68
2022-10-11T11:06:06.495Z,14.62
2022-10-11T11:09:04.619Z,14.62
2022-10-11T11:11:42.005Z,14.79
2022-10-11T11:14:52.430Z,14.58
2022-10-11T11:17:52.368Z,14.45
2022-10-11T11:20:52.107Z,14.32
2022-10-11T11:23:54.228Z,14.16
2022-10-11T11:26:44.295Z,13.87
2022-10-11T11:29:43.785Z,13.86
2022-10-11T11:32:21.453Z,13.80
2022-10-11T11:35:01.216Z,13.75
2022-10-11T11:37:41.478Z,13.69
2022-10-11T11:40:34.930Z,13.77
2022-10-11T11:43:15.007Z,13.70
2022-10-11T11:46:38.572Z,13.68
2022-10-11T11:49:21.517Z,13.68
2022-10-11T11:51:50.426Z,13.64
2022-10-11T11:54:28.922Z,13.59
2022-10-11T11:57:02.520Z,13.60
2022-10-11T11:59:35.545Z,13.59
2022-10-11T12:02:41.768Z,13.68
2022-10-11T12:05:13.319Z,13.60
2022-10-11T12:08:08.384Z,13.67
2022-10-11T12:10:50.379Z,13.76
2022-10-11T12:13:51.454Z,13.66
2022-10-11T12:16:20.210Z,13.73
2022-10-11T12:19:14.446Z,13.63
2022-10-11T12:21:44.830Z,13.62
2022-10-11T12:24:21.141Z,13.52
2022-10-11T12:26:56.909Z,13.53
2022-10-11T12:29:44.922Z,13.55
2022-10-11T12:32:34.808Z,13.59
2022-10-11T12:35:33.576Z,13.48
2022-10-11T12:38:21.505Z,13.47
2022-10-11T12:41:17.019Z,13.48
2022-10-11T12:43:50.288Z,13.48
2022-10-11T12:46:29.369Z,13.42
2022-10-11T12:49:24.516Z,13.47
2022-10-11T12:52:17.743Z,13.50
2022-10-11T12:55:27.373Z,13.52
2022-10-11T12:58:24.046Z,13.60
2022-10-11T13:00:51.209Z,13.67
2022-10-11T13:03:39.561Z,13.90
2022-10-11T13:06:25.132Z,14.18
2022-10-11T13:09:07.186Z,14.55
2022-10-11T13:11:46.429Z,14.84
2022-10-11T13:14:21.998Z,15.09
2022-10-11T13:17:04.172Z,15.59
2022-10-11T13:19:36.585Z,15.61
2022-10-11T13:22:18.233Z,15.82
2022-10-11T13:24:45.603Z,15.71
2022-10-11T13:27:23.061Z,15.59
2022-10-11T13:29:54.312Z,15.61
2022-10-11T13:32:28.295Z,15.47
2022-10-11T13:35:01.516Z,15.42
2022-10-11T13:37:31.305Z,15.78
2022-10-11T13:39:59.283Z,15.70
2022-10-11T13:42:31.805Z,15.40
2022-10-11T13:45:00.810Z,15.08
2022-10-11T13:47:32.030Z,14.80
2022-10-11T13:50:15.884Z,14.51
2022-10-11T13:53:10.833Z,14.29
2022-10-11T13:56:07.971Z,14.28
2022-10-11T13:58:46.851Z,14.21
2022-10-11T14:01:28.367Z,14.14
2022-10-11T14:04:01.412Z,13.98
2022-10-11T14:06:56.157Z,13.88
2022-10-11T14:09:39.181Z,13.84
2022-10-11T14:12:31.956Z,13.99
2022-10-11T14:15:01.055Z,13.98
2022-10-11T14:17:44.410Z,13.87
2022-10-11T14:20:16.919Z,13.82
2022-10-11T14:22:44.457Z,13.77
2022-10-11T14:25:12.970Z,13.66
2022-10-11T14:27:40.779Z,13.57
2022-10-11T14:30:27.286Z,13.58
2022-10-11T14:32:59.498Z,13.58
2022-10-11T14:35:31.971Z,13.57
2022-10-11T14:37:59.557Z,13.57
2022-10-11T14:40:30.534Z,13.54
2022-10-11T14:42:58.185Z,13.45
2022-10-11T14:45:25.899Z,13.39
2022-10-11T14:47:53.606Z,13.26
2022-10-11T14:50:48.054Z,13.13
2022-10-11T14:53:15.662Z,13.04
2022-10-11T14:55:43.532Z,12.98
2022-10-11T14:58:14.749Z,12.81
2022-10-11T15:00:42.325Z,12.70
2022-10-11T15:03:09.946Z,12.58
2022-10-11T15:05:38.213Z,12.50
2022-10-11T15:08:07.634Z,12.43
2022-10-11T15:10:39.867Z,12.29
2022-10-11T15:13:08.641Z,12.21
2022-10-11T15:15:41.197Z,12.16
2022-10-11T15:18:12.616Z,12.13
2022-10-11T15:20:43.672Z,12.20
2022-10-11T15:23:12.228Z,12.25
2022-10-11T15:25:41.524Z,12.26
2022-10-11T15:28:28.777Z,12.33
2022-10-11T15:30:56.884Z,12.29
2022-10-11T15:33:25.676Z,12.14
2022-10-11T15:35:52.975Z,11.96
2022-10-11T15:38:24.809Z,11.74
2022-10-11T15:40:53.777Z,11.54
2022-10-11T15:43:24.778Z,11.32
2022-10-11T15:45:52.701Z,11.17
2022-10-11T15:48:22.960Z,11.07
2022-10-11T15:50:51.202Z,11.07
2022-10-11T15:53:37.087Z,11.04
2022-10-11T15:56:15.227Z,10.94
2022-10-11T15:58:43.077Z,10.84
2022-10-11T16:01:18.833Z,10.72
2022-10-11T16:03:48.581Z,10.62
2022-10-11T16:06:16.995Z,10.47
2022-10-11T16:08:44.319Z,10.26
2022-10-11T16:11:12.838Z,10.08
2022-10-11T16:13:40.508Z,9.85
2022-10-11T16:16:09.787Z,9.80
2022-10-11T16:18:37.619Z,9.73
2022-10-11T16:21:10.798Z,9.66
2022-10-11T16:23:38.790Z,9.58
2022-10-11T16:26:10.021Z,9.59
2022-10-11T16:28:37.864Z,9.60
2022-10-11T16:31:11.461Z,9.62
2022-10-11T16:33:45.948Z,9.70
2022-10-11T16:36:40.560Z,9.76
2022-10-11T16:39:14.301Z,9.75
2022-10-11T16:41:42.710Z,9.74
2022-10-11T16:44:18.590Z,9.66
2022-10-11T16:46:48.490Z,9.66
2022-10-11T16:49:25.985Z,9.51
2022-10-11T16:51:57.022Z,9.51
2022-10-11T16:54:24.397Z,9.50
2022-10-11T16:56:51.620Z,9.46
2022-10-11T16:59:19.500Z,9.39
2022-10-11T17:01:46.789Z,9.47
2022-10-11T17:04:14.273Z,9.31
2022-10-11T17:06:43.943Z,9.23
2022-10-11T17:09:11.762Z,9.27
2022-10-11T17:11:40.719Z,9.30
2022-10-11T17:14:08.245Z,9.30
2022-10-11T17:16:36.057Z,9.26
2022-10-11T17:19:03.983Z,9.29
2022-10-11T17:21:31.431Z,9.24
2022-10-11T17:23:58.947Z,9.30
2022-10-11T17:26:27.919Z,9.40
2022-10-11T17:28:58.157Z,9.57
2022-10-11T17:31:27.003Z,9.64
2022-10-11T17:33:54.960Z,9.69
2022-10-11T17:36:34.655Z,9.76
2022-10-11T17:39:07.198Z,9.89
2022-10-11T17:41:34.974Z,9.93
2022-10-11T17:44:03.226Z,9.92
2022-10-11T17:46:34.165Z,9.82
2022-10-11T17:49:05.503Z,9.75
2022-10-11T17:51:34.057Z,9.62
2022-10-11T17:54:01.564Z,9.49
2022-10-11T17:56:33.692Z,9.41
2022-10-11T17:59:03.971Z,9.26
2022-10-11T18:01:31.292Z,9.21
2022-10-11T18:04:03.170Z,9.16
2022-10-11T18:06:34.408Z,9.17
2022-10-11T18:09:03.375Z,9.10
2022-10-11T18:11:31.691Z,8.94
2022-10-11T18:13:59.353Z,8.80
2022-10-11T18:16:29.764Z,8.53
2022-10-11T18:18:58.321Z,8.31
2022-10-11T18:21:34.322Z,8.11
2022-10-11T18:24:06.074Z,7.99
2022-10-11T18:26:34.491Z,7.87
2022-10-11T18:29:01.772Z,7.75
2022-10-11T18:31:31.129Z,7.68
2022-10-11T18:33:58.777Z,7.60
2022-10-11T18:36:28.976Z,7.45
2022-10-11T18:39:05.559Z,7.26
2022-10-11T18:41:35.312Z,7.15
2022-10-11T18:44:06.788Z,7.16
2022-10-11T18:46:34.959Z,7.13
2022-10-11T18:49:02.944Z,7.20
2022-10-11T18:51:39.820Z,7.19
2022-10-11T18:54:12.052Z,7.15
2022-10-11T18:56:41.703Z,7.08
2022-10-11T18:59:10.217Z,7.08
2022-10-11T19:01:42.087Z,7.05
2022-10-11T19:04:12.804Z,7.01
2022-10-11T19:06:44.663Z,6.97
2022-10-11T19:09:24.521Z,6.94
2022-10-11T19:11:57.574Z,6.87
2022-10-11T19:14:29.078Z,6.82
2022-10-11T19:16:58.121Z,6.91
2022-10-11T19:19:29.388Z,6.89
2022-10-11T19:21:57.056Z,6.83
2022-10-11T19:24:27.127Z,6.86
2022-10-11T19:26:59.726Z,6.82
2022-10-11T19:29:29.789Z,6.86
2022-10-11T19:32:00.697Z,6.87
2022-10-11T19:34:28.963Z,6.82
2022-10-11T19:36:57.311Z,6.76
2022-10-11T19:39:25.595Z,6.78
2022-10-11T19:41:54.017Z,6.78
2022-10-11T19:44:21.509Z,6.81
2022-10-11T19:46:52.762Z,6.80
2022-10-11T19:49:25.914Z,6.76
2022-10-11T19:51:55.567Z,6.78
2022-10-11T19:54:23.913Z,6.74
2022-10-11T19:56:51.634Z,6.66
2022-10-11T19:59:19.184Z,6.65
2022-10-11T20:01:52.258Z,6.66
2022-10-11T20:07:08.041Z,6.55
2022-10-11T20:09:35.364Z,6.53
2022-10-11T20:12:02.900Z,6.52
2022-10-11T20:14:30.319Z,6.50
2022-10-11T20:16:58.126Z,6.59
2022-10-11T20:19:31.034Z,6.63
2022-10-11T20:22:00.565Z,6.58
2022-10-11T20:24:33.050Z,6.34
2022-10-11T20:27:04.117Z,6.20
2022-10-11T20:29:31.814Z,6.22
2022-10-11T20:31:59.142Z,6.14
2022-10-11T20:34:27.808Z,6.07
2022-10-11T20:36:55.321Z,6.14
2022-10-11T20:39:23.675Z,6.26
2022-10-11T20:41:51.250Z,6.31
2022-10-11T20:44:18.717Z,6.34
2022-10-11T20:46:46.081Z,6.29
2022-10-11T20:49:13.480Z,6.30
2022-10-11T20:51:42.909Z,6.25
2022-10-11T20:54:11.054Z,6.22
2022-10-11T20:56:38.867Z,6.22
2022-10-11T20:59:06.777Z,6.16
2022-10-11T21:01:40.341Z,6.13
2022-10-11T21:04:17.375Z,6.19
2022-10-11T21:06:44.822Z,6.16
2022-10-11T21:09:15.463Z,6.12
2022-10-11T21:11:44.123Z,6.11
2022-10-11T21:14:11.768Z,6.13
2022-10-11T21:16:39.355Z,6.15
2022-10-11T21:19:06.643Z,6.04
2022-10-11T21:21:34.756Z,5.99
2022-10-11T21:24:02.741Z,6.01
2022-10-11T21:26:31.107Z,6.01
2022-10-11T21:29:04.043Z,5.98
2022-10-11T21:31:34.390Z,5.91
2022-10-11T21:34:02.790Z,5.87
2022-10-11T21:36:31.033Z,5.81
2022-10-11T21:38:58.395Z,5.87
2022-10-11T21:41:30.164Z,5.87
2022-10-11T21:43:58.201Z,5.86
2022-10-11T21:47:01.252Z,5.84
2022-10-11T21:49:20.113Z,5.85
2022-10-11T21:51:47.405Z,5.78
2022-10-11T21:54:14.673Z,5.73
2022-10-11T21:56:42.717Z,5.67
2022-10-11T21:59:12.435Z,5.66
2022-10-11T22:01:41.145Z,5.67
2022-10-11T22:04:08.522Z,5.65
2022-10-11T22:06:37.469Z,5.59
2022-10-11T22:09:06.547Z,5.58
2022-10-11T22:11:33.929Z,5.62
2022-10-11T22:14:01.267Z,5.59
2022-10-11T22:16:28.439Z,5.58
2022-10-11T22:18:55.694Z,5.49
2022-10-11T22:21:24.739Z,5.47
2022-10-11T22:23:54.151Z,5.47
2022-10-11T22:26:25.832Z,5.49
2022-10-11T22:28:53.490Z,5.48
2022-10-11T22:31:21.577Z,5.43
2022-10-11T22:33:52.840Z,5.36
2022-10-11T22:36:20.102Z,5.33
2022-10-11T22:38:47.784Z,5.34
2022-10-11T22:41:15.085Z,5.30
2022-10-11T22:43:42.676Z,5.26
2022-10-11T22:46:10.826Z,5.29
2022-10-11T22:48:38.221Z,5.28
2022-10-11T22:51:05.757Z,5.32
2022-10-11T22:53:33.325Z,5.30
2022-10-11T22:56:00.919Z,5.29
2022-10-11T22:58:28.348Z,5.23
2022-10-11T23:00:55.647Z,5.16
2022-10-11T23:03:23.028Z,5.09
2022-10-11T23:05:57.870Z,5.13
2022-10-11T23:08:26.107Z,5.09
2022-10-11T23:10:53.771Z,5.04
2022-10-11T23:13:21.162Z,4.90
2022-10-11T23:15:48.531Z,4.95
2022-10-11T23:18:17.226Z,4.92
2022-10-11T23:20:44.629Z,4.85
2022-10-11T23:23:11.805Z,4.87
2022-10-11T23:25:39.127Z,4.90
2022-10-11T23:28:06.351Z,4.92
2022-10-11T23:30:33.793Z,4.95
2022-10-11T23:33:01.058Z,4.89
2022-10-11T23:35:28.188Z,4.86
2022-10-11T23:37:55.455Z,4.88
2022-10-11T23:40:22.743Z,4.86
2022-10-11T23:42:49.996Z,4.83
2022-10-11T23:45:17.224Z,4.82
2022-10-11T23:47:44.392Z,4.83
2022-10-11T23:50:11.617Z,4.82
2022-10-11T23:52:38.883Z,4.79
2022-10-11T23:55:06.435Z,4.71
2022-10-11T23:57:34.140Z,4.68
